sensor_id;sensor_type;location;lat;lon;timestamp;P1;durP1;ratioP1;P2;durP2;ratioP2
29206;SDS011;16247;50.840;4.382;2023-09-12T00:00:38;36.53;;;24.70;;
29206;SDS011;16247;50.840;4.382;2023-09-12T00:03:52;38.97;;;27.27;;
29206;SDS011;16247;50.840;4.382;2023-09-12T00:06:26;38.95;;;26.38;;
29206;SDS011;16247;50.840;4.382;2023-09-12T00:22:08;44.05;;;28.55;;
29206;SDS011;16247;50.840;4.382;2023-09-12T00:25:01;42.15;;;28.85;;
29206;SDS011;16247;50.840;4.382;2023-09-12T00:27:30;39.78;;;29.02;;
29206;SDS011;16247;50.840;4.382;2023-09-12T00:49:02;46.70;;;34.60;;
29206;SDS011;16247;50.840;4.382;2023-09-12T00:52:29;43.45;;;28.73;;
29206;SDS011;16247;50.840;4.382;2023-09-12T00:58:10;28.85;;;19.38;;
29206;SDS011;16247;50.840;4.382;2023-09-12T01:00:42;28.33;;;19.13;;
29206;SDS011;16247;50.840;4.382;2023-09-12T01:03:16;29.92;;;19.98;;
29206;SDS011;16247;50.840;4.382;2023-09-12T01:05:50;30.67;;;20.02;;
29206;SDS011;16247;50.840;4.382;2023-09-12T01:10:52;28.17;;;19.10;;
29206;SDS011;16247;50.840;4.382;2023-09-12T01:13:25;34.10;;;21.45;;
29206;SDS011;16247;50.840;4.382;2023-09-12T01:15:56;29.48;;;20.40;;
29206;SDS011;16247;50.840;4.382;2023-09-12T01:18:23;30.73;;;20.83;;
29206;SDS011;16247;50.840;4.382;2023-09-12T01:29:24;30.23;;;19.75;;
29206;SDS011;16247;50.840;4.382;2023-09-12T01:31:54;28.73;;;18.80;;
29206;SDS011;16247;50.840;4.382;2023-09-12T01:34:22;30.25;;;19.27;;
29206;SDS011;16247;50.840;4.382;2023-09-12T01:36:51;31.63;;;21.58;;
29206;SDS011;16247;50.840;4.382;2023-09-12T01:41:49;32.17;;;19.42;;
29206;SDS011;16247;50.840;4.382;2023-09-12T01:44:17;26.27;;;18.17;;
29206;SDS011;16247;50.840;4.382;2023-09-12T01:46:53;26.48;;;18.35;;
29206;SDS011;16247;50.840;4.382;2023-09-12T01:49:21;25.45;;;17.85;;
29206;SDS011;16247;50.840;4.382;2023-09-12T01:51:52;26.23;;;17.85;;
29206;SDS011;16247;50.840;4.382;2023-09-12T01:54:19;25.70;;;18.02;;
29206;SDS011;16247;50.840;4.382;2023-09-12T01:56:47;26.13;;;17.13;;
29206;SDS011;16247;50.840;4.382;2023-09-12T01:59:14;25.97;;;18.57;;
29206;SDS011;16247;50.840;4.382;2023-09-12T02:36:23;43.97;;;30.75;;
29206;SDS011;16247;50.840;4.382;2023-09-12T02:39:05;46.20;;;31.60;;
29206;SDS011;16247;50.840;4.382;2023-09-12T02:41:50;52.35;;;32.17;;
29206;SDS011;16247;50.840;4.382;2023-09-12T02:44:19;47.22;;;31.17;;
29206;SDS011;16247;50.840;4.382;2023-09-12T02:46:57;47.63;;;31.67;;
29206;SDS011;16247;50.840;4.382;2023-09-12T02:49:27;48.47;;;30.75;;
29206;SDS011;16247;50.840;4.382;2023-09-12T02:52:05;47.45;;;32.25;;
29206;SDS011;16247;50.840;4.382;2023-09-12T02:54:47;43.33;;;29.40;;
29206;SDS011;16247;50.840;4.382;2023-09-12T02:57:47;50.63;;;32.35;;
29206;SDS011;16247;50.840;4.382;2023-09-12T03:00:52;45.30;;;29.65;;
29206;SDS011;16247;50.840;4.382;2023-09-12T03:03:44;44.88;;;29.75;;
29206;SDS011;16247;50.840;4.382;2023-09-12T03:06:21;42.17;;;27.45;;
29206;SDS011;16247;50.840;4.382;2023-09-12T03:08:47;44.05;;;28.02;;
29206;SDS011;16247;50.840;4.382;2023-09-12T03:11:14;44.53;;;27.33;;
29206;SDS011;16247;50.840;4.382;2023-09-12T03:13:41;38.45;;;23.60;;
29206;SDS011;16247;50.840;4.382;2023-09-12T03:36:57;51.75;;;33.42;;
29206;SDS011;16247;50.840;4.382;2023-09-12T03:45:19;45.90;;;30.98;;
29206;SDS011;16247;50.840;4.382;2023-09-12T03:48:11;54.30;;;32.22;;
29206;SDS011;16247;50.840;4.382;2023-09-12T03:50:50;43.60;;;29.55;;
29206;SDS011;16247;50.840;4.382;2023-09-12T04:00:24;48.53;;;28.90;;
29206;SDS011;16247;50.840;4.382;2023-09-12T04:10:23;46.63;;;29.30;;
29206;SDS011;16247;50.840;4.382;2023-09-12T04:13:00;48.22;;;30.02;;
29206;SDS011;16247;50.840;4.382;2023-09-12T04:16:14;45.88;;;27.92;;
29206;SDS011;16247;50.840;4.382;2023-09-12T04:19:50;42.17;;;28.70;;
29206;SDS011;16247;50.840;4.382;2023-09-12T04:22:51;43.28;;;25.90;;
29206;SDS011;16247;50.840;4.382;2023-09-12T04:40:45;40.60;;;27.13;;
29206;SDS011;16247;50.840;4.382;2023-09-12T04:54:33;44.60;;;26.48;;
29206;SDS011;16247;50.840;4.382;2023-09-12T05:02:26;47.38;;;27.65;;
29206;SDS011;16247;50.840;4.382;2023-09-12T05:04:52;45.95;;;27.65;;
29206;SDS011;16247;50.840;4.382;2023-09-12T05:07:18;43.83;;;25.90;;
29206;SDS011;16247;50.840;4.382;2023-09-12T05:09:44;43.58;;;27.50;;
29206;SDS011;16247;50.840;4.382;2023-09-12T05:12:09;42.60;;;27.15;;
29206;SDS011;16247;50.840;4.382;2023-09-12T05:14:35;46.53;;;27.27;;
29206;SDS011;16247;50.840;4.382;2023-09-12T05:17:01;44.13;;;26.05;;
29206;SDS011;16247;50.840;4.382;2023-09-12T05:19:27;43.05;;;26.48;;
29206;SDS011;16247;50.840;4.382;2023-09-12T05:21:55;46.28;;;24.80;;
29206;SDS011;16247;50.840;4.382;2023-09-12T05:24:21;43.97;;;26.98;;
29206;SDS011;16247;50.840;4.382;2023-09-12T05:26:46;40.28;;;23.55;;
29206;SDS011;16247;50.840;4.382;2023-09-12T05:29:14;36.78;;;22.90;;
29206;SDS011;16247;50.840;4.382;2023-09-12T05:31:39;28.80;;;17.80;;
29206;SDS011;16247;50.840;4.382;2023-09-12T05:34:05;30.55;;;18.45;;
29206;SDS011;16247;50.840;4.382;2023-09-12T05:36:32;28.25;;;16.90;;
29206;SDS011;16247;50.840;4.382;2023-09-12T05:38:58;30.50;;;17.33;;
29206;SDS011;16247;50.840;4.382;2023-09-12T05:41:23;31.05;;;17.90;;
29206;SDS011;16247;50.840;4.382;2023-09-12T05:43:49;24.23;;;15.20;;
29206;SDS011;16247;50.840;4.382;2023-09-12T05:46:15;25.52;;;16.63;;
29206;SDS011;16247;50.840;4.382;2023-09-12T05:48:40;27.17;;;15.80;;
29206;SDS011;16247;50.840;4.382;2023-09-12T05:51:06;28.67;;;17.48;;
29206;SDS011;16247;50.840;4.382;2023-09-12T05:53:31;28.75;;;18.20;;
29206;SDS011;16247;50.840;4.382;2023-09-12T05:55:57;26.20;;;16.85;;
29206;SDS011;16247;50.840;4.382;2023-09-12T05:58:23;30.77;;;17.83;;
29206;SDS011;16247;50.840;4.382;2023-09-12T06:00:49;28.13;;;17.40;;
29206;SDS011;16247;50.840;4.382;2023-09-12T06:03:15;23.50;;;16.10;;
29206;SDS011;16247;50.840;4.382;2023-09-12T06:05:41;32.13;;;15.90;;
29206;SDS011;16247;50.840;4.382;2023-09-12T06:08:06;26.15;;;14.63;;
29206;SDS011;16247;50.840;4.382;2023-09-12T06:10:32;26.73;;;17.10;;
29206;SDS011;16247;50.840;4.382;2023-09-12T06:12:59;27.63;;;16.88;;
29206;SDS011;16247;50.840;4.382;2023-09-12T06:15:24;24.45;;;15.68;;
29206;SDS011;16247;50.840;4.382;2023-09-12T06:17:50;29.30;;;15.20;;
29206;SDS011;16247;50.840;4.382;2023-09-12T06:20:16;26.90;;;15.18;;
29206;SDS011;16247;50.840;4.382;2023-09-12T06:22:41;32.78;;;15.43;;
29206;SDS011;16247;50.840;4.382;2023-09-12T06:25:08;26.73;;;14.50;;
29206;SDS011;16247;50.840;4.382;2023-09-12T06:27:34;22.40;;;12.68;;
29206;SDS011;16247;50.840;4.382;2023-09-12T06:29:59;27.23;;;15.93;;
29206;SDS011;16247;50.840;4.382;2023-09-12T06:32:25;32.88;;;19.00;;
29206;SDS011;16247;50.840;4.382;2023-09-12T06:34:51;35.55;;;19.48;;
29206;SDS011;16247;50.840;4.382;2023-09-12T06:37:17;29.17;;;16.95;;
29206;SDS011;16247;50.840;4.382;2023-09-12T06:39:43;32.60;;;19.63;;
29206;SDS011;16247;50.840;4.382;2023-09-12T06:42:09;35.08;;;20.23;;
29206;SDS011;16247;50.840;4.382;2023-09-12T06:44:35;32.65;;;21.35;;
29206;SDS011;16247;50.840;4.382;2023-09-12T06:47:03;28.40;;;20.60;;
29206;SDS011;16247;50.840;4.382;2023-09-12T06:49:30;33.40;;;21.65;;
29206;SDS011;16247;50.840;4.382;2023-09-12T06:51:57;33.13;;;21.15;;
29206;SDS011;16247;50.840;4.382;2023-09-12T06:54:23;35.53;;;23.27;;
29206;SDS011;16247;50.840;4.382;2023-09-12T06:56:48;36.33;;;22.85;;
29206;SDS011;16247;50.840;4.382;2023-09-12T06:59:14;31.83;;;21.35;;
29206;SDS011;16247;50.840;4.382;2023-09-12T07:01:40;36.08;;;21.73;;
29206;SDS011;16247;50.840;4.382;2023-09-12T07:04:05;29.20;;;19.55;;
29206;SDS011;16247;50.840;4.382;2023-09-12T07:06:31;36.40;;;19.60;;
29206;SDS011;16247;50.840;4.382;2023-09-12T07:08:57;37.55;;;18.40;;
29206;SDS011;16247;50.840;4.382;2023-09-12T07:11:23;33.28;;;17.38;;
29206;SDS011;16247;50.840;4.382;2023-09-12T07:13:49;35.08;;;17.13;;
29206;SDS011;16247;50.840;4.382;2023-09-12T07:16:15;28.67;;;15.93;;
29206;SDS011;16247;50.840;4.382;2023-09-12T07:18:40;33.75;;;20.13;;
29206;SDS011;16247;50.840;4.382;2023-09-12T07:21:06;29.38;;;18.05;;
29206;SDS011;16247;50.840;4.382;2023-09-12T07:23:32;30.17;;;18.00;;
29206;SDS011;16247;50.840;4.382;2023-09-12T07:25:58;25.88;;;16.48;;
29206;SDS011;16247;50.840;4.382;2023-09-12T07:28:24;26.25;;;14.85;;
29206;SDS011;16247;50.840;4.382;2023-09-12T07:30:50;24.48;;;14.75;;
29206;SDS011;16247;50.840;4.382;2023-09-12T07:33:16;26.13;;;17.80;;
29206;SDS011;16247;50.840;4.382;2023-09-12T07:35:42;27.67;;;16.73;;
29206;SDS011;16247;50.840;4.382;2023-09-12T07:38:07;23.13;;;17.13;;
29206;SDS011;16247;50.840;4.382;2023-09-12T07:40:33;27.75;;;15.93;;
29206;SDS011;16247;50.840;4.382;2023-09-12T07:42:59;25.08;;;16.30;;
29206;SDS011;16247;50.840;4.382;2023-09-12T07:45:25;26.50;;;18.15;;
29206;SDS011;16247;50.840;4.382;2023-09-12T07:47:50;29.25;;;16.52;;
29206;SDS011;16247;50.840;4.382;2023-09-12T07:50:16;27.15;;;13.57;;
29206;SDS011;16247;50.840;4.382;2023-09-12T07:52:42;30.17;;;13.95;;
29206;SDS011;16247;50.840;4.382;2023-09-12T07:55:08;23.65;;;11.63;;
29206;SDS011;16247;50.840;4.382;2023-09-12T07:57:34;28.42;;;17.45;;
29206;SDS011;16247;50.840;4.382;2023-09-12T08:00:01;25.50;;;18.13;;
29206;SDS011;16247;50.840;4.382;2023-09-12T08:02:30;24.05;;;15.13;;
29206;SDS011;16247;50.840;4.382;2023-09-12T08:04:55;34.00;;;17.52;;
29206;SDS011;16247;50.840;4.382;2023-09-12T08:07:21;32.40;;;18.15;;
29206;SDS011;16247;50.840;4.382;2023-09-12T08:09:52;31.52;;;17.58;;
29206;SDS011;16247;50.840;4.382;2023-09-12T08:12:25;27.02;;;15.57;;
29206;SDS011;16247;50.840;4.382;2023-09-12T08:14:52;25.60;;;16.60;;
29206;SDS011;16247;50.840;4.382;2023-09-12T08:17:19;29.85;;;17.40;;
29206;SDS011;16247;50.840;4.382;2023-09-12T08:19:45;33.45;;;19.88;;
29206;SDS011;16247;50.840;4.382;2023-09-12T08:22:11;36.70;;;22.42;;
29206;SDS011;16247;50.840;4.382;2023-09-12T08:24:37;33.75;;;20.92;;
29206;SDS011;16247;50.840;4.382;2023-09-12T08:27:06;32.85;;;20.98;;
29206;SDS011;16247;50.840;4.382;2023-09-12T08:29:32;33.67;;;20.35;;
29206;SDS011;16247;50.840;4.382;2023-09-12T08:31:59;30.35;;;20.88;;
29206;SDS011;16247;50.840;4.382;2023-09-12T08:34:25;31.70;;;18.83;;
29206;SDS011;16247;50.840;4.382;2023-09-12T08:36:51;31.00;;;19.05;;
29206;SDS011;16247;50.840;4.382;2023-09-12T08:39:24;29.20;;;16.98;;
29206;SDS011;16247;50.840;4.382;2023-09-12T08:41:51;30.52;;;18.48;;
29206;SDS011;16247;50.840;4.382;2023-09-12T08:44:18;28.87;;;17.07;;
29206;SDS011;16247;50.840;4.382;2023-09-12T08:46:45;37.10;;;21.55;;
29206;SDS011;16247;50.840;4.382;2023-09-12T08:49:12;32.45;;;20.17;;
29206;SDS011;16247;50.840;4.382;2023-09-12T08:51:41;35.67;;;20.58;;
29206;SDS011;16247;50.840;4.382;2023-09-12T08:54:07;26.52;;;17.45;;
29206;SDS011;16247;50.840;4.382;2023-09-12T08:56:34;30.50;;;18.77;;
29206;SDS011;16247;50.840;4.382;2023-09-12T08:59:02;30.63;;;18.58;;
29206;SDS011;16247;50.840;4.382;2023-09-12T09:01:32;33.53;;;20.25;;
29206;SDS011;16247;50.840;4.382;2023-09-12T09:03:59;28.40;;;17.40;;
29206;SDS011;16247;50.840;4.382;2023-09-12T09:06:31;28.67;;;16.05;;
29206;SDS011;16247;50.840;4.382;2023-09-12T09:09:10;23.48;;;15.98;;
29206;SDS011;16247;50.840;4.382;2023-09-12T09:11:36;29.50;;;16.30;;
29206;SDS011;16247;50.840;4.382;2023-09-12T09:16:42;36.30;;;18.92;;
29206;SDS011;16247;50.840;4.382;2023-09-12T09:19:08;31.15;;;16.55;;
29206;SDS011;16247;50.840;4.382;2023-09-12T09:21:36;25.05;;;16.65;;
29206;SDS011;16247;50.840;4.382;2023-09-12T09:24:12;24.17;;;17.10;;
29206;SDS011;16247;50.840;4.382;2023-09-12T09:26:47;23.90;;;14.15;;
29206;SDS011;16247;50.840;4.382;2023-09-12T09:29:16;29.38;;;15.23;;
29206;SDS011;16247;50.840;4.382;2023-09-12T09:31:44;22.67;;;14.20;;
29206;SDS011;16247;50.840;4.382;2023-09-12T09:34:15;25.00;;;13.38;;
29206;SDS011;16247;50.840;4.382;2023-09-12T09:37:00;24.30;;;14.98;;
29206;SDS011;16247;50.840;4.382;2023-09-12T09:39:31;26.05;;;15.70;;
29206;SDS011;16247;50.840;4.382;2023-09-12T09:41:57;21.63;;;14.90;;
29206;SDS011;16247;50.840;4.382;2023-09-12T09:44:26;22.10;;;15.10;;
29206;SDS011;16247;50.840;4.382;2023-09-12T09:46:59;25.83;;;16.55;;
29206;SDS011;16247;50.840;4.382;2023-09-12T09:49:30;26.63;;;17.15;;
29206;SDS011;16247;50.840;4.382;2023-09-12T09:52:06;24.67;;;16.42;;
29206;SDS011;16247;50.840;4.382;2023-09-12T09:54:32;23.88;;;16.98;;
29206;SDS011;16247;50.840;4.382;2023-09-12T09:57:00;26.17;;;15.95;;
29206;SDS011;16247;50.840;4.382;2023-09-12T09:59:30;27.23;;;17.80;;
29206;SDS011;16247;50.840;4.382;2023-09-12T10:01:58;26.77;;;16.98;;
29206;SDS011;16247;50.840;4.382;2023-09-12T10:04:29;28.10;;;16.45;;
29206;SDS011;16247;50.840;4.382;2023-09-12T10:07:01;31.35;;;16.85;;
29206;SDS011;16247;50.840;4.382;2023-09-12T10:09:28;24.58;;;15.18;;
29206;SDS011;16247;50.840;4.382;2023-09-12T10:11:57;28.88;;;15.02;;
29206;SDS011;16247;50.840;4.382;2023-09-12T10:14:27;27.42;;;16.83;;
29206;SDS011;16247;50.840;4.382;2023-09-12T10:17:02;20.55;;;14.02;;
29206;SDS011;16247;50.840;4.382;2023-09-12T10:19:32;24.27;;;14.57;;
29206;SDS011;16247;50.840;4.382;2023-09-12T10:24:56;23.10;;;13.82;;
29206;SDS011;16247;50.840;4.382;2023-09-12T10:27:27;23.63;;;13.75;;
29206;SDS011;16247;50.840;4.382;2023-09-12T10:35:15;15.07;;;8.55;;
29206;SDS011;16247;50.840;4.382;2023-09-12T10:40:42;16.45;;;12.38;;
29206;SDS011;16247;50.840;4.382;2023-09-12T10:43:53;19.77;;;11.52;;
29206;SDS011;16247;50.840;4.382;2023-09-12T10:46:29;13.70;;;10.75;;
29206;SDS011;16247;50.840;4.382;2023-09-12T10:51:52;14.60;;;9.10;;
29206;SDS011;16247;50.840;4.382;2023-09-12T10:57:04;11.57;;;9.05;;
29206;SDS011;16247;50.840;4.382;2023-09-12T11:02:37;11.05;;;8.57;;
29206;SDS011;16247;50.840;4.382;2023-09-12T11:05:05;14.07;;;7.93;;
29206;SDS011;16247;50.840;4.382;2023-09-12T11:12:53;17.65;;;9.55;;
29206;SDS011;16247;50.840;4.382;2023-09-12T11:15:23;13.13;;;8.85;;
29206;SDS011;16247;50.840;4.382;2023-09-12T11:18:04;15.57;;;9.02;;
29206;SDS011;16247;50.840;4.382;2023-09-12T11:23:33;13.40;;;8.10;;
29206;SDS011;16247;50.840;4.382;2023-09-12T11:26:05;13.25;;;9.60;;
29206;SDS011;16247;50.840;4.382;2023-09-12T11:28:31;14.02;;;8.35;;
29206;SDS011;16247;50.840;4.382;2023-09-12T11:30:58;14.20;;;8.43;;
29206;SDS011;16247;50.840;4.382;2023-09-12T11:33:26;12.70;;;7.35;;
29206;SDS011;16247;50.840;4.382;2023-09-12T11:36:02;9.90;;;7.60;;
29206;SDS011;16247;50.840;4.382;2023-09-12T11:38:40;12.88;;;7.68;;
29206;SDS011;16247;50.840;4.382;2023-09-12T11:41:06;14.10;;;7.05;;
29206;SDS011;16247;50.840;4.382;2023-09-12T11:43:36;10.15;;;6.45;;
29206;SDS011;16247;50.840;4.382;2023-09-12T11:46:18;10.48;;;6.72;;
29206;SDS011;16247;50.840;4.382;2023-09-12T11:48:50;12.38;;;6.78;;
29206;SDS011;16247;50.840;4.382;2023-09-12T11:51:18;10.30;;;6.35;;
29206;SDS011;16247;50.840;4.382;2023-09-12T11:56:38;10.77;;;6.80;;
29206;SDS011;16247;50.840;4.382;2023-09-12T11:59:21;6.80;;;6.05;;
29206;SDS011;16247;50.840;4.382;2023-09-12T12:01:57;8.40;;;6.57;;
29206;SDS011;16247;50.840;4.382;2023-09-12T12:07:16;11.93;;;6.55;;
29206;SDS011;16247;50.840;4.382;2023-09-12T12:09:44;10.73;;;6.40;;
29206;SDS011;16247;50.840;4.382;2023-09-12T12:12:11;10.02;;;6.43;;
29206;SDS011;16247;50.840;4.382;2023-09-12T12:14:39;10.43;;;5.53;;
29206;SDS011;16247;50.840;4.382;2023-09-12T12:17:11;7.93;;;5.50;;
29206;SDS011;16247;50.840;4.382;2023-09-12T12:19:39;10.65;;;6.05;;
29206;SDS011;16247;50.840;4.382;2023-09-12T12:22:11;10.75;;;6.10;;
29206;SDS011;16247;50.840;4.382;2023-09-12T12:24:49;8.05;;;5.82;;
29206;SDS011;16247;50.840;4.382;2023-09-12T12:27:19;11.70;;;6.82;;
29206;SDS011;16247;50.840;4.382;2023-09-12T12:29:46;11.20;;;6.97;;
29206;SDS011;16247;50.840;4.382;2023-09-12T12:32:16;10.18;;;6.18;;
29206;SDS011;16247;50.840;4.382;2023-09-12T12:34:47;9.82;;;6.18;;
29206;SDS011;16247;50.840;4.382;2023-09-12T12:37:19;11.40;;;6.57;;
29206;SDS011;16247;50.840;4.382;2023-09-12T12:39:54;10.30;;;5.85;;
29206;SDS011;16247;50.840;4.382;2023-09-12T12:42:45;10.05;;;6.13;;
29206;SDS011;16247;50.840;4.382;2023-09-12T12:45:14;11.20;;;6.00;;
29206;SDS011;16247;50.840;4.382;2023-09-12T12:47:45;8.57;;;5.13;;
29206;SDS011;16247;50.840;4.382;2023-09-12T12:50:35;7.63;;;5.28;;
29206;SDS011;16247;50.840;4.382;2023-09-12T12:56:49;9.00;;;4.53;;
29206;SDS011;16247;50.840;4.382;2023-09-12T12:59:10;9.82;;;5.30;;
29206;SDS011;16247;50.840;4.382;2023-09-12T13:01:44;10.30;;;6.95;;
29206;SDS011;16247;50.840;4.382;2023-09-12T13:04:40;7.03;;;5.70;;
29206;SDS011;16247;50.840;4.382;2023-09-12T13:07:06;11.23;;;6.53;;
29206;SDS011;16247;50.840;4.382;2023-09-12T13:09:33;9.95;;;6.57;;
29206;SDS011;16247;50.840;4.382;2023-09-12T13:12:05;9.20;;;6.18;;
29206;SDS011;16247;50.840;4.382;2023-09-12T13:14:42;11.75;;;6.38;;
29206;SDS011;16247;50.840;4.382;2023-09-12T13:17:16;11.73;;;7.20;;
29206;SDS011;16247;50.840;4.382;2023-09-12T13:19:57;11.50;;;7.20;;
29206;SDS011;16247;50.840;4.382;2023-09-12T13:22:27;11.40;;;6.65;;
29206;SDS011;16247;50.840;4.382;2023-09-12T13:25:11;12.20;;;6.68;;
29206;SDS011;16247;50.840;4.382;2023-09-12T13:27:38;12.07;;;7.25;;
29206;SDS011;16247;50.840;4.382;2023-09-12T13:30:21;10.88;;;7.45;;
29206;SDS011;16247;50.840;4.382;2023-09-12T13:33:13;12.88;;;7.55;;
29206;SDS011;16247;50.840;4.382;2023-09-12T13:36:04;15.68;;;8.00;;
29206;SDS011;16247;50.840;4.382;2023-09-12T13:38:53;10.32;;;7.45;;
29206;SDS011;16247;50.840;4.382;2023-09-12T13:41:27;11.93;;;7.63;;
29206;SDS011;16247;50.840;4.382;2023-09-12T13:44:18;8.60;;;6.75;;
29206;SDS011;16247;50.840;4.382;2023-09-12T13:47:08;10.18;;;7.53;;
29206;SDS011;16247;50.840;4.382;2023-09-12T13:49:57;11.52;;;7.65;;
29206;SDS011;16247;50.840;4.382;2023-09-12T13:52:26;8.27;;;6.88;;
29206;SDS011;16247;50.840;4.382;2023-09-12T13:54:57;12.15;;;7.65;;
29206;SDS011;16247;50.840;4.382;2023-09-12T13:57:28;11.88;;;7.45;;
29206;SDS011;16247;50.840;4.382;2023-09-12T13:59:56;10.30;;;7.57;;
29206;SDS011;16247;50.840;4.382;2023-09-12T14:02:22;10.60;;;8.35;;
29206;SDS011;16247;50.840;4.382;2023-09-12T14:08:02;13.13;;;8.65;;
29206;SDS011;16247;50.840;4.382;2023-09-12T14:10:30;13.50;;;9.48;;
29206;SDS011;16247;50.840;4.382;2023-09-12T14:13:12;14.63;;;10.10;;
29206;SDS011;16247;50.840;4.382;2023-09-12T14:15:53;13.45;;;9.77;;
29206;SDS011;16247;50.840;4.382;2023-09-12T14:18:27;10.77;;;8.77;;
29206;SDS011;16247;50.840;4.382;2023-09-12T14:20:54;12.27;;;9.23;;
29206;SDS011;16247;50.840;4.382;2023-09-12T14:23:30;13.77;;;8.48;;
29206;SDS011;16247;50.840;4.382;2023-09-12T14:25:55;14.05;;;9.43;;
29206;SDS011;16247;50.840;4.382;2023-09-12T14:28:28;13.85;;;8.90;;
29206;SDS011;16247;50.840;4.382;2023-09-12T14:30:57;10.80;;;8.45;;
29206;SDS011;16247;50.840;4.382;2023-09-12T14:33:24;12.32;;;9.85;;
29206;SDS011;16247;50.840;4.382;2023-09-12T14:35:51;13.85;;;8.95;;
29206;SDS011;16247;50.840;4.382;2023-09-12T14:41:58;12.88;;;8.38;;
29206;SDS011;16247;50.840;4.382;2023-09-12T14:47:07;11.95;;;8.75;;
29206;SDS011;16247;50.840;4.382;2023-09-12T14:49:33;12.40;;;9.45;;
29206;SDS011;16247;50.840;4.382;2023-09-12T14:52:03;12.88;;;8.43;;
29206;SDS011;16247;50.840;4.382;2023-09-12T14:54:54;12.23;;;8.45;;
29206;SDS011;16247;50.840;4.382;2023-09-12T14:57:35;9.48;;;8.10;;
29206;SDS011;16247;50.840;4.382;2023-09-12T15:02:58;11.57;;;8.43;;
29206;SDS011;16247;50.840;4.382;2023-09-12T15:05:24;11.77;;;8.10;;
29206;SDS011;16247;50.840;4.382;2023-09-12T15:07:52;12.50;;;8.27;;
29206;SDS011;16247;50.840;4.382;2023-09-12T15:10:21;12.43;;;8.15;;
29206;SDS011;16247;50.840;4.382;2023-09-12T15:13:13;11.18;;;7.75;;
29206;SDS011;16247;50.840;4.382;2023-09-12T15:24:47;13.00;;;8.80;;
29206;SDS011;16247;50.840;4.382;2023-09-12T15:29:53;10.15;;;8.18;;
29206;SDS011;16247;50.840;4.382;2023-09-12T15:32:19;13.63;;;9.05;;
29206;SDS011;16247;50.840;4.382;2023-09-12T15:34:45;7.90;;;6.90;;
29206;SDS011;16247;50.840;4.382;2023-09-12T15:37:12;11.55;;;9.02;;
29206;SDS011;16247;50.840;4.382;2023-09-12T15:39:39;10.13;;;8.40;;
29206;SDS011;16247;50.840;4.382;2023-09-12T15:42:05;11.98;;;8.27;;
29206;SDS011;16247;50.840;4.382;2023-09-12T15:44:31;10.05;;;7.82;;
29206;SDS011;16247;50.840;4.382;2023-09-12T15:46:58;11.43;;;7.68;;
29206;SDS011;16247;50.840;4.382;2023-09-12T15:49:27;13.18;;;10.10;;
29206;SDS011;16247;50.840;4.382;2023-09-12T15:51:56;12.23;;;9.10;;
29206;SDS011;16247;50.840;4.382;2023-09-12T15:54:22;12.95;;;9.32;;
29206;SDS011;16247;50.840;4.382;2023-09-12T15:56:49;21.23;;;11.40;;
29206;SDS011;16247;50.840;4.382;2023-09-12T15:59:15;17.48;;;12.27;;
29206;SDS011;16247;50.840;4.382;2023-09-12T16:01:40;15.85;;;11.63;;
29206;SDS011;16247;50.840;4.382;2023-09-12T16:04:06;18.80;;;12.40;;
29206;SDS011;16247;50.840;4.382;2023-09-12T16:06:32;25.63;;;14.88;;
29206;SDS011;16247;50.840;4.382;2023-09-12T16:08:57;19.55;;;14.63;;
29206;SDS011;16247;50.840;4.382;2023-09-12T16:11:24;22.50;;;15.75;;
29206;SDS011;16247;50.840;4.382;2023-09-12T16:13:50;19.75;;;15.15;;
29206;SDS011;16247;50.840;4.382;2023-09-12T16:16:15;22.55;;;14.80;;
29206;SDS011;16247;50.840;4.382;2023-09-12T16:18:41;23.17;;;14.90;;
29206;SDS011;16247;50.840;4.382;2023-09-12T16:21:10;21.52;;;14.98;;
29206;SDS011;16247;50.840;4.382;2023-09-12T16:23:36;21.73;;;16.60;;
29206;SDS011;16247;50.840;4.382;2023-09-12T16:26:02;23.17;;;17.38;;
29206;SDS011;16247;50.840;4.382;2023-09-12T16:28:28;26.58;;;18.15;;
29206;SDS011;16247;50.840;4.382;2023-09-12T16:30:54;24.20;;;18.25;;
29206;SDS011;16247;50.840;4.382;2023-09-12T16:33:20;27.13;;;18.85;;
29206;SDS011;16247;50.840;4.382;2023-09-12T16:35:45;22.42;;;16.98;;
29206;SDS011;16247;50.840;4.382;2023-09-12T16:38:12;26.48;;;18.58;;
29206;SDS011;16247;50.840;4.382;2023-09-12T16:40:38;22.20;;;16.92;;
29206;SDS011;16247;50.840;4.382;2023-09-12T16:43:04;22.30;;;17.73;;
29206;SDS011;16247;50.840;4.382;2023-09-12T16:45:30;25.13;;;18.38;;
29206;SDS011;16247;50.840;4.382;2023-09-12T16:47:56;27.35;;;20.25;;
29206;SDS011;16247;50.840;4.382;2023-09-12T16:50:24;25.15;;;19.00;;
29206;SDS011;16247;50.840;4.382;2023-09-12T16:52:50;26.83;;;19.85;;
29206;SDS011;16247;50.840;4.382;2023-09-12T16:55:16;26.35;;;18.92;;
29206;SDS011;16247;50.840;4.382;2023-09-12T16:57:41;27.48;;;19.65;;
29206;SDS011;16247;50.840;4.382;2023-09-12T17:00:08;26.65;;;19.02;;
29206;SDS011;16247;50.840;4.382;2023-09-12T17:02:35;25.45;;;18.83;;
29206;SDS011;16247;50.840;4.382;2023-09-12T17:05:02;22.88;;;18.02;;
29206;SDS011;16247;50.840;4.382;2023-09-12T17:07:29;20.53;;;16.20;;
29206;SDS011;16247;50.840;4.382;2023-09-12T17:09:55;24.48;;;15.43;;
29206;SDS011;16247;50.840;4.382;2023-09-12T17:12:23;17.08;;;13.55;;
29206;SDS011;16247;50.840;4.382;2023-09-12T17:14:49;14.82;;;11.43;;
29206;SDS011;16247;50.840;4.382;2023-09-12T17:17:15;15.48;;;10.20;;
29206;SDS011;16247;50.840;4.382;2023-09-12T17:19:41;14.25;;;11.30;;
29206;SDS011;16247;50.840;4.382;2023-09-12T17:22:09;13.73;;;8.73;;
29206;SDS011;16247;50.840;4.382;2023-09-12T17:24:36;13.93;;;10.55;;
29206;SDS011;16247;50.840;4.382;2023-09-12T17:27:01;17.08;;;11.02;;
29206;SDS011;16247;50.840;4.382;2023-09-12T17:29:28;54.08;;;26.58;;
29206;SDS011;16247;50.840;4.382;2023-09-12T17:31:54;13.07;;;9.40;;
29206;SDS011;16247;50.840;4.382;2023-09-12T17:34:37;15.43;;;10.32;;
29206;SDS011;16247;50.840;4.382;2023-09-12T17:37:06;18.52;;;11.50;;
29206;SDS011;16247;50.840;4.382;2023-09-12T17:39:33;38.13;;;19.92;;
29206;SDS011;16247;50.840;4.382;2023-09-12T17:41:59;53.08;;;37.72;;
29206;SDS011;16247;50.840;4.382;2023-09-12T17:44:24;120.78;;;90.68;;
29206;SDS011;16247;50.840;4.382;2023-09-12T17:46:50;39.75;;;29.67;;
29206;SDS011;16247;50.840;4.382;2023-09-12T17:49:16;54.25;;;38.63;;
29206;SDS011;16247;50.840;4.382;2023-09-12T17:51:41;30.58;;;20.05;;
29206;SDS011;16247;50.840;4.382;2023-09-12T17:54:07;16.08;;;12.38;;
29206;SDS011;16247;50.840;4.382;2023-09-12T17:56:33;16.63;;;11.07;;
29206;SDS011;16247;50.840;4.382;2023-09-12T17:58:58;14.65;;;11.13;;
29206;SDS011;16247;50.840;4.382;2023-09-12T18:01:24;15.60;;;10.35;;
29206;SDS011;16247;50.840;4.382;2023-09-12T18:03:50;12.13;;;9.38;;
29206;SDS011;16247;50.840;4.382;2023-09-12T18:06:20;12.77;;;8.50;;
29206;SDS011;16247;50.840;4.382;2023-09-12T18:08:46;16.20;;;9.65;;
29206;SDS011;16247;50.840;4.382;2023-09-12T18:11:12;13.65;;;8.65;;
29206;SDS011;16247;50.840;4.382;2023-09-12T18:13:38;11.75;;;7.75;;
29206;SDS011;16247;50.840;4.382;2023-09-12T18:16:04;12.48;;;8.02;;
29206;SDS011;16247;50.840;4.382;2023-09-12T18:18:31;10.37;;;7.07;;
29206;SDS011;16247;50.840;4.382;2023-09-12T18:20:57;8.85;;;7.25;;
29206;SDS011;16247;50.840;4.382;2023-09-12T18:23:23;10.68;;;7.40;;
29206;SDS011;16247;50.840;4.382;2023-09-12T18:25:48;11.20;;;7.95;;